Time;durP1;ratioP1;P1;durP2;ratioP2;P2;SDS_P1;SDS_P2;PMS_P1;PMS_P2;Temp;Humidity;BMP_temperature;BMP_pressure;BME280_temperature;BME280_humidity;BME280_pressure;Samples;Min_cycle;Max_cycle;Signal;HPM_P1;HPM_P2
2022/03/07 00:00:22;;;;;;;19.05;10.23;;;;;;;3.54;42.55;99685.75;5161074;28;20524;-67
2022/03/07 00:03:12;;;;;;;17.63;11.57;;;;;;;3.51;43.41;99685.97;5159126;28;20629;-67
2022/03/07 00:06:04;;;;;;;18.63;10.52;;;;;;;3.42;43.54;99674.19;5155380;28;20057;-67
2022/03/07 00:08:55;;;;;;;18.92;10.63;;;;;;;3.57;43.78;99682.97;5161336;28;20108;-66
2022/03/07 00:11:46;;;;;;;20.42;10.80;;;;;;;3.52;43.87;99679.78;5161299;28;20148;-67
2022/03/07 00:14:36;;;;;;;18.70;11.00;;;;;;;3.56;43.50;99685.69;5161337;28;20435;-67
2022/03/07 00:17:26;;;;;;;18.30;10.77;;;;;;;3.57;43.85;99690.84;5161369;28;20197;-67
2022/03/07 00:20:16;;;;;;;17.88;10.30;;;;;;;3.03;45.04;99690.22;5160438;28;20373;-67
2022/03/07 00:23:06;;;;;;;19.50;10.13;;;;;;;2.70;45.46;99680.53;5161949;28;20054;-67
2022/03/07 00:25:56;;;;;;;17.17;10.32;;;;;;;3.19;44.32;99695.50;5160051;28;20050;-67
2022/03/07 00:28:48;;;;;;;15.05;9.73;;;;;;;2.98;45.63;99694.84;5161660;28;20050;-66
2022/03/07 00:31:37;;;;;;;17.13;9.95;;;;;;;2.73;46.31;99698.72;5159724;28;20054;-67
2022/03/07 00:34:29;;;;;;;16.73;10.25;;;;;;;2.45;46.87;99696.63;5160122;28;20062;-66
2022/03/07 00:37:19;;;;;;;17.52;10.57;;;;;;;2.86;45.86;99693.69;5160037;28;20055;-67
2022/03/07 00:40:10;;;;;;;16.08;9.98;;;;;;;3.17;45.03;99694.75;5161662;28;20073;-65
2022/03/07 00:43:00;;;;;;;15.40;9.40;;;;;;;2.98;45.51;99694.84;5160732;28;20057;-66
2022/03/07 00:45:50;;;;;;;16.33;10.18;;;;;;;3.04;45.86;99697.13;5159863;28;20073;-67
2022/03/07 00:48:41;;;;;;;16.98;9.75;;;;;;;3.00;46.04;99699.06;5161996;28;20065;-66
2022/03/07 00:51:32;;;;;;;16.15;9.35;;;;;;;3.37;44.84;99691.06;5156949;28;20057;-66
2022/03/07 00:54:23;;;;;;;15.73;9.45;;;;;;;3.20;45.18;99708.53;5146741;28;20057;-67
2022/03/07 00:57:13;;;;;;;18.88;9.77;;;;;;;2.34;46.50;99701.53;5157013;28;20133;-67
2022/03/07 01:00:04;;;;;;;17.67;9.70;;;;;;;2.53;45.56;99699.69;5160968;28;20057;-66
2022/03/07 01:02:55;;;;;;;16.83;9.90;;;;;;;2.02;47.26;99703.06;5161423;28;20062;-67
2022/03/07 01:05:47;;;;;;;14.20;9.15;;;;;;;2.85;45.28;99710.34;5161717;28;20093;-66
2022/03/07 01:08:39;;;;;;;16.08;8.88;;;;;;;2.73;45.84;99706.56;5166437;28;20050;-67
2022/03/07 01:11:29;;;;;;;15.90;9.57;;;;;;;2.72;45.40;99696.19;5163611;28;20051;-67
2022/03/07 01:14:19;;;;;;;14.02;9.32;;;;;;;3.01;44.88;99699.91;5157157;28;20046;-66
2022/03/07 01:17:10;;;;;;;15.43;8.65;;;;;;;2.50;45.46;99672.84;5164207;28;20199;-67
2022/03/07 01:20:00;;;;;;;15.25;8.45;;;;;;;2.47;45.12;99701.78;5159288;28;20152;-67
2022/03/07 01:22:51;;;;;;;15.10;9.00;;;;;;;2.33;45.63;99695.44;5163918;28;20053;-69
2022/03/07 01:25:42;;;;;;;13.30;8.68;;;;;;;2.28;44.96;99701.81;5164197;28;20257;-66
2022/03/07 01:28:31;;;;;;;13.35;8.48;;;;;;;2.38;44.80;99686.53;5163963;28;20108;-67
2022/03/07 01:31:22;;;;;;;15.57;8.70;;;;;;;2.39;44.46;99698.69;5164685;28;20054;-66
2022/03/07 01:34:13;;;;;;;14.10;9.15;;;;;;;2.48;44.37;99693.00;5158951;28;20057;-69
2022/03/07 01:37:04;;;;;;;13.13;9.07;;;;;;;2.63;43.88;99694.84;5163076;28;20137;-66
2022/03/07 01:39:54;;;;;;;15.90;9.20;;;;;;;2.40;44.65;99697.78;5163517;28;20152;-67
2022/03/07 01:42:49;;;;;;;15.43;8.43;;;;;;;2.58;44.68;99683.75;5163319;28;20057;-67
2022/03/07 01:45:41;;;;;;;16.08;8.85;;;;;;;2.23;44.64;99688.13;5162946;28;20057;-66
2022/03/07 01:48:31;;;;;;;14.95;8.57;;;;;;;2.49;45.15;99697.31;5162016;28;20108;-66
2022/03/07 01:51:22;;;;;;;15.02;9.20;;;;;;;2.39;45.25;99685.63;5156300;28;20405;-67
2022/03/07 01:54:17;;;;;;;16.08;9.88;;;;;;;2.07;44.28;99681.00;5148069;28;20050;-67
2022/03/07 01:57:07;;;;;;;16.40;9.60;;;;;;;1.55;45.26;99680.81;5158235;28;20057;-67
2022/03/07 01:59:58;;;;;;;16.27;8.80;;;;;;;1.84;45.37;99668.19;5161960;28;20061;-66
2022/03/07 02:02:49;;;;;;;17.13;9.32;;;;;;;1.75;45.21;99679.06;5161120;28;20530;-66
2022/03/07 02:05:47;;;;;;;16.02;9.93;;;;;;;1.90;45.07;99674.88;5161242;28;20137;-68
2022/03/07 02:08:42;;;;;;;17.95;9.82;;;;;;;1.85;45.70;99670.72;5161890;28;20069;-66
2022/03/07 02:11:39;;;;;;;16.98;10.07;;;;;;;1.80;45.17;99670.09;5161125;28;20050;-67
2022/03/07 02:14:34;;;;;;;19.58;9.82;;;;;;;1.80;44.45;99667.47;5161555;28;20056;-67
2022/03/07 02:17:25;;;;;;;16.60;10.63;;;;;;;1.65;46.02;99671.63;5161433;28;20210;-68
2022/03/07 02:20:16;;;;;;;16.52;10.20;;;;;;;1.52;45.34;99646.13;5147829;28;20189;-68
2022/03/07 02:23:06;;;;;;;20.20;11.10;;;;;;;1.36;46.09;99665.16;5161955;28;20416;-67
2022/03/07 02:25:57;;;;;;;15.75;10.10;;;;;;;1.25;46.91;99670.00;5148438;28;20054;-67
2022/03/07 02:28:48;;;;;;;18.38;10.45;;;;;;;1.11;47.61;99667.16;5161515;28;20054;-67
2022/03/07 02:31:44;;;;;;;17.48;10.27;;;;;;;1.03;47.47;99662.28;5160710;28;20069;-68
2022/03/07 02:34:37;;;;;;;17.58;10.50;;;;;;;1.12;47.48;99661.00;5161177;28;20058;-68
2022/03/07 02:37:28;;;;;;;18.27;10.68;;;;;;;0.77;47.67;99659.94;5160561;28;20060;-68
2022/03/07 02:40:20;;;;;;;17.98;10.55;;;;;;;0.63;47.74;99650.06;5147847;28;20120;-67
2022/03/07 02:43:30;;;;;;;16.75;10.10;;;;;;;0.89;47.11;99636.78;5161192;28;20104;-68
2022/03/07 02:46:22;;;;;;;17.25;10.73;;;;;;;0.62;48.39;99651.00;5149622;28;20492;-68
2022/03/07 02:49:12;;;;;;;17.15;10.30;;;;;;;0.52;49.29;99650.53;5163743;28;20062;-68
2022/03/07 02:52:03;;;;;;;19.88;10.75;;;;;;;0.49;48.15;99642.84;5157649;28;20057;-67
2022/03/07 02:54:53;;;;;;;15.27;10.25;;;;;;;0.29;49.57;99651.50;5163259;28;20058;-68
2022/03/07 02:57:43;;;;;;;14.63;9.57;;;;;;;0.15;49.26;99661.66;5157133;28;20054;-67
2022/03/07 03:00:33;;;;;;;15.80;10.02;;;;;;;0.02;50.05;99647.41;5163446;28;20058;-67
2022/03/07 03:03:24;;;;;;;17.90;11.05;;;;;;;0.01;50.06;99636.13;5163261;28;20086;-67
2022/03/07 03:06:15;;;;;;;17.33;10.73;;;;;;;-0.07;50.65;99654.66;5163462;28;20073;-66
2022/03/07 03:09:05;;;;;;;19.08;10.98;;;;;;;-0.13;49.84;99647.13;5163591;28;20417;-67
2022/03/07 03:11:56;;;;;;;18.15;10.48;;;;;;;0.03;49.79;99659.53;5144958;28;20121;-67
2022/03/07 03:14:46;;;;;;;17.45;11.02;;;;;;;-0.10;49.85;99665.25;5163332;28;20064;-68
2022/03/07 03:17:43;;;;;;;20.75;11.65;;;;;;;-0.33;50.69;99660.94;5143522;28;20058;-67
2022/03/07 03:20:33;;;;;;;19.35;10.65;;;;;;;-0.27;50.41;99642.41;5154766;28;20112;-67
2022/03/07 03:23:23;;;;;;;21.77;11.20;;;;;;;-0.25;51.00;99661.47;5163553;28;20053;-66
2022/03/07 03:26:16;;;;;;;20.38;12.00;;;;;;;-0.27;51.13;99668.47;5161296;28;20125;-67
2022/03/07 03:29:06;;;;;;;19.65;11.30;;;;;;;-0.38;51.17;99654.19;5162675;28;20144;-67
2022/03/07 03:31:58;;;;;;;20.42;10.77;;;;;;;-0.57;50.44;99662.69;5161111;28;20077;-67
2022/03/07 03:34:49;;;;;;;23.52;11.52;;;;;;;-0.51;51.28;99679.84;5162278;28;20077;-67
2022/03/07 03:37:39;;;;;;;19.58;11.05;;;;;;;-0.56;51.29;99685.25;5162140;28;20050;-66
2022/03/07 03:40:29;;;;;;;23.83;12.90;;;;;;;-0.75;51.97;99639.94;5162127;28;20548;-67
2022/03/07 03:43:22;;;;;;;22.83;11.27;;;;;;;-0.71;52.21;99675.38;5161793;28;20100;-67
2022/03/07 03:46:12;;;;;;;24.85;13.75;;;;;;;-0.74;52.74;99681.53;5161611;28;20132;-68
2022/03/07 03:49:02;;;;;;;19.52;11.77;;;;;;;-0.86;51.37;99684.63;5162586;28;20158;-68
2022/03/07 03:51:52;;;;;;;20.95;11.82;;;;;;;-0.85;52.29;99693.28;5161232;28;20046;-67
2022/03/07 03:54:42;;;;;;;23.33;12.52;;;;;;;-0.82;52.28;99683.59;5161793;28;20334;-67
2022/03/07 03:57:32;;;;;;;24.73;13.30;;;;;;;-0.77;51.89;99689.47;5161604;28;20136;-67
2022/03/07 04:00:24;;;;;;;24.95;12.48;;;;;;;-0.72;50.55;99682.34;5157803;28;20220;-68
2022/03/07 04:03:14;;;;;;;25.73;14.20;;;;;;;-0.53;50.92;99697.28;5160775;28;20428;-68
2022/03/07 04:06:06;;;;;;;22.83;12.88;;;;;;;-0.96;50.96;99631.16;5160002;28;20432;-67
2022/03/07 04:08:55;;;;;;;21.02;12.63;;;;;;;-0.41;50.30;99689.00;5161561;28;20196;-69
2022/03/07 04:11:47;;;;;;;21.98;12.77;;;;;;;-0.29;50.36;99693.78;5159992;28;20528;-67
2022/03/07 04:14:37;;;;;;;21.70;12.43;;;;;;;-0.29;50.23;99690.31;5161493;28;20169;-67
2022/03/07 04:17:27;;;;;;;23.52;12.20;;;;;;;-0.35;50.93;99690.56;5160354;28;20057;-68
2022/03/07 04:20:18;;;;;;;21.77;13.40;;;;;;;-0.30;50.85;99688.59;5161495;28;20505;-67
2022/03/07 04:23:08;;;;;;;24.05;12.85;;;;;;;-0.26;51.32;99687.59;5162026;28;20050;-68
2022/03/07 04:25:58;;;;;;;21.92;12.30;;;;;;;-0.22;51.55;99681.34;5160107;28;20528;-68
2022/03/07 04:28:51;;;;;;;24.48;12.57;;;;;;;-0.57;52.01;99680.06;5160820;28;20050;-68
2022/03/07 04:31:43;;;;;;;24.98;13.32;;;;;;;-0.57;51.46;99675.72;5161357;28;20055;-68
2022/03/07 04:34:33;;;;;;;20.27;12.32;;;;;;;-0.42;52.29;99686.47;5161333;28;20050;-68
2022/03/07 04:37:24;;;;;;;23.75;12.15;;;;;;;-0.63;51.63;99675.97;5161689;28;20084;-68
2022/03/07 04:40:19;;;;;;;23.55;11.50;;;;;;;-0.57;50.87;99691.34;5160948;28;20057;-68
2022/03/07 04:43:09;;;;;;;23.67;12.65;;;;;;;-0.50;52.52;99698.03;5158265;28;20055;-67
2022/03/07 04:45:59;;;;;;;24.58;12.93;;;;;;;-0.30;52.04;99704.25;5160788;28;20057;-68
2022/03/07 04:48:50;;;;;;;22.73;13.00;;;;;;;-0.43;51.92;99688.25;5158456;28;20150;-67
2022/03/07 04:51:45;;;;;;;24.90;13.65;;;;;;;-0.31;52.04;99705.16;5164184;28;20132;-68
2022/03/07 04:54:35;;;;;;;23.90;13.02;;;;;;;-0.33;53.21;99714.78;5160140;28;20180;-68
2022/03/07 04:57:25;;;;;;;21.58;12.63;;;;;;;-0.23;52.26;99713.53;5165631;28;20061;-68
2022/03/07 05:00:16;;;;;;;23.85;13.07;;;;;;;-0.28;52.25;99705.88;5162046;28;20080;-67
2022/03/07 05:03:06;;;;;;;23.10;12.77;;;;;;;-0.55;52.11;99702.56;5153046;28;20069;-67
2022/03/07 05:05:57;;;;;;;22.42;12.48;;;;;;;-0.59;52.74;99718.38;5163645;28;20143;-67
2022/03/07 05:08:46;;;;;;;23.90;12.38;;;;;;;-0.52;52.62;99710.25;5182056;23;20053;-69
2022/03/07 05:11:36;;;;;;;21.92;12.68;;;;;;;-0.66;52.76;99722.06;5165774;28;20416;-70
2022/03/07 05:14:26;;;;;;;26.23;13.57;;;;;;;-0.69;51.38;99710.03;5185495;28;20112;-69
2022/03/07 05:17:16;;;;;;;24.88;12.85;;;;;;;-0.69;51.77;99720.47;5185245;28;20157;-69
2022/03/07 05:20:07;;;;;;;24.77;12.43;;;;;;;-0.70;52.09;99716.13;5167773;28;20120;-70
2022/03/07 05:22:58;;;;;;;23.45;12.90;;;;;;;-0.74;52.31;99725.81;5164198;28;20148;-72
2022/03/07 05:25:48;;;;;;;22.25;13.15;;;;;;;-0.69;54.11;99720.47;5156595;28;20151;-69
2022/03/07 05:28:38;;;;;;;25.38;13.25;;;;;;;-0.86;53.84;99709.78;5164958;28;20077;-70
2022/03/07 05:31:29;;;;;;;25.23;13.55;;;;;;;-0.79;53.65;99721.69;5164788;28;20065;-72
2022/03/07 05:34:19;;;;;;;23.40;12.63;;;;;;;-0.84;52.92;99729.66;5164759;28;20062;-71
2022/03/07 05:37:09;;;;;;;23.88;13.30;;;;;;;-0.93;52.09;99718.72;5162068;28;20624;-74
2022/03/07 05:39:59;;;;;;;30.15;12.27;;;;;;;-0.92;52.28;99728.25;5158886;28;20057;-73
2022/03/07 05:42:49;;;;;;;25.65;13.07;;;;;;;-0.95;54.02;99735.25;5169543;28;20058;-74
2022/03/07 05:45:39;;;;;;;23.45;13.18;;;;;;;-0.65;53.90;99745.47;5141737;28;20565;-70
2022/03/07 05:48:30;;;;;;;28.80;13.88;;;;;;;-1.03;54.75;99721.63;5141746;28;20047;-74
2022/03/07 05:51:23;;;;;;;27.00;13.52;;;;;;;-1.25;54.70;99712.88;5144545;28;20164;-69
2022/03/07 05:54:14;;;;;;;26.75;13.57;;;;;;;-1.07;54.81;99737.41;5144808;28;20055;-71
2022/03/07 05:57:04;;;;;;;28.15;13.55;;;;;;;-1.09;55.79;99734.00;5142876;28;20426;-73
2022/03/07 05:59:54;;;;;;;25.98;12.93;;;;;;;-0.93;54.83;99731.72;5141941;28;20054;-73
2022/03/07 06:02:44;;;;;;;27.55;13.75;;;;;;;-1.01;55.39;99748.47;5143104;28;20137;-72
2022/03/07 06:05:34;;;;;;;29.95;13.40;;;;;;;-0.93;55.29;99761.22;5142918;28;20062;-73
2022/03/07 06:08:24;;;;;;;35.85;13.07;;;;;;;-0.99;55.24;99745.81;5144580;28;20198;-73
2022/03/07 06:11:13;;;;;;;25.60;13.13;;;;;;;-1.06;56.45;99745.19;5144420;28;20510;-74
2022/03/07 06:14:03;;;;;;;25.80;12.90;;;;;;;-0.93;55.53;99749.94;5144566;28;20054;-73
2022/03/07 06:16:54;;;;;;;24.23;12.13;;;;;;;-1.00;56.51;99752.75;5143086;28;20051;-71
2022/03/07 06:19:44;;;;;;;23.65;11.80;;;;;;;-1.12;55.07;99732.38;5142040;28;20046;-74
2022/03/07 06:22:34;;;;;;;20.45;11.38;;;;;;;-1.02;54.89;99754.59;5143382;28;20069;-73
2022/03/07 06:25:24;;;;;;;19.98;11.30;;;;;;;-1.10;56.00;99740.13;5142532;28;20054;-73
2022/03/07 06:28:15;;;;;;;26.83;12.50;;;;;;;-0.77;56.20;99731.13;5142075;28;22752;-72
2022/03/07 06:31:05;;;;;;;20.45;11.95;;;;;;;-0.61;55.83;99741.00;5142225;28;20173;-72
2022/03/07 06:33:55;;;;;;;19.55;10.90;;;;;;;-0.72;54.80;99749.22;5155871;28;20057;-70
2022/03/07 06:36:45;;;;;;;21.25;12.00;;;;;;;-0.65;55.39;99752.44;5143531;28;20429;-72
2022/03/07 06:39:35;;;;;;;27.02;11.27;;;;;;;-0.47;55.64;99744.78;5143973;28;20051;-70
2022/03/07 06:42:25;;;;;;;26.27;10.65;;;;;;;-0.27;54.45;99751.88;5142858;28;20462;-71
2022/03/07 06:45:17;;;;;;;25.23;11.35;;;;;;;-0.19;55.03;99743.78;5143259;28;20489;-71
2022/03/07 06:48:07;;;;;;;22.83;11.10;;;;;;;-0.16;53.83;99751.50;5148027;28;20544;-71
2022/03/07 06:50:57;;;;;;;19.88;9.65;;;;;;;-0.03;54.15;99744.91;5142572;28;20624;-71
2022/03/07 06:53:46;;;;;;;17.23;9.43;;;;;;;0.47;52.67;99739.47;5141715;28;20054;-72
2022/03/07 06:56:36;;;;;;;17.45;9.50;;;;;;;0.57;52.37;99749.53;5142683;28;20062;-72
2022/03/07 06:59:27;;;;;;;18.10;9.27;;;;;;;1.56;49.21;99734.81;5139102;28;20077;-72
2022/03/07 07:02:17;;;;;;;20.35;9.10;;;;;;;1.96;48.13;99763.53;5153768;28;20575;-72
2022/03/07 07:05:08;;;;;;;18.10;9.30;;;;;;;2.62;47.42;99763.03;5139751;28;20086;-72
2022/03/07 07:07:58;;;;;;;17.67;8.98;;;;;;;2.39;46.66;99733.56;5139177;28;20066;-72
2022/03/07 07:10:49;;;;;;;16.80;9.38;;;;;;;3.14;45.59;99765.66;5143334;28;20059;-72
2022/03/07 07:13:39;;;;;;;15.50;8.63;;;;;;;2.43;46.62;99765.66;5142023;28;20139;-71
2022/03/07 07:16:29;;;;;;;16.63;9.38;;;;;;;2.56;46.35;99775.47;5142782;28;20113;-72
2022/03/07 07:19:19;;;;;;;18.25;8.55;;;;;;;1.40;48.51;99783.44;5143144;28;20527;-71
2022/03/07 07:22:10;;;;;;;15.43;9.07;;;;;;;1.83;47.98;99781.53;5154865;28;20065;-72
2022/03/07 07:25:01;;;;;;;18.45;9.07;;;;;;;2.47;47.21;99788.16;5142546;28;20068;-71
2022/03/07 07:27:51;;;;;;;21.92;10.15;;;;;;;2.28;46.72;99791.63;5142028;28;20069;-71
2022/03/07 07:30:41;;;;;;;17.30;9.73;;;;;;;1.52;48.03;99788.13;5140162;28;20066;-70
2022/03/07 07:33:31;;;;;;;18.27;9.95;;;;;;;2.31;47.48;99793.25;5141742;28;20094;-70
2022/03/07 07:36:21;;;;;;;18.08;9.82;;;;;;;2.32;47.34;99789.75;5131473;28;20055;-70
2022/03/07 07:39:11;;;;;;;18.42;10.48;;;;;;;1.95;47.64;99786.19;5143002;28;20059;-71
2022/03/07 07:42:03;;;;;;;18.35;10.27;;;;;;;1.53;49.58;99774.16;5142293;28;20493;-71
2022/03/07 07:44:53;;;;;;;20.55;11.10;;;;;;;2.67;46.45;99780.19;5141974;28;20054;-70
2022/03/07 07:47:44;;;;;;;18.38;9.95;;;;;;;1.84;48.21;99775.38;5142211;28;20069;-71
2022/03/07 07:50:34;;;;;;;19.95;11.13;;;;;;;2.99;45.90;99773.38;5141496;28;20061;-71
2022/03/07 07:53:24;;;;;;;20.55;10.95;;;;;;;2.35;47.42;99800.91;5140721;28;20116;-70
2022/03/07 07:56:15;;;;;;;22.50;11.68;;;;;;;2.72;46.46;99798.31;5134314;28;20055;-71
2022/03/07 07:59:05;;;;;;;19.33;11.40;;;;;;;3.18;46.20;99798.63;5120858;28;20051;-70
2022/03/07 08:01:55;;;;;;;20.73;11.27;;;;;;;2.53;46.76;99803.56;5121924;29;20094;-70
2022/03/07 08:04:45;;;;;;;20.85;11.60;;;;;;;3.54;44.89;99801.13;5132951;28;20133;-71
2022/03/07 08:07:36;;;;;;;24.15;11.27;;;;;;;4.08;44.10;99814.91;5141770;28;20066;-71
2022/03/07 08:10:26;;;;;;;18.65;11.50;;;;;;;2.18;47.47;99803.44;5140341;28;20059;-70
2022/03/07 08:13:16;;;;;;;21.52;12.13;;;;;;;2.55;46.38;99805.19;5141884;28;20049;-70
2022/03/07 08:16:06;;;;;;;24.65;12.15;;;;;;;4.18;44.74;99816.09;5140100;28;20069;-71
2022/03/07 08:18:56;;;;;;;21.92;11.98;;;;;;;3.72;43.73;99813.31;5142190;28;20173;-71
2022/03/07 08:21:46;;;;;;;20.42;11.35;;;;;;;4.29;42.90;99814.66;5140906;28;20058;-70
2022/03/07 08:24:36;;;;;;;20.33;11.57;;;;;;;3.79;42.81;99807.75;5140546;28;20046;-71
2022/03/07 08:27:26;;;;;;;18.35;11.13;;;;;;;3.68;42.83;99790.78;5141298;28;20149;-70
2022/03/07 08:30:19;;;;;;;21.80;11.85;;;;;;;3.21;43.73;99812.44;5153037;28;20054;-71
2022/03/07 08:33:09;;;;;;;20.15;12.02;;;;;;;3.55;44.47;99815.97;5138671;28;20046;-71
2022/03/07 08:35:59;;;;;;;21.15;11.80;;;;;;;2.63;44.90;99819.69;5141468;28;20082;-70
2022/03/07 08:38:49;;;;;;;18.35;11.05;;;;;;;2.13;44.29;99826.38;5140531;28;20051;-70
2022/03/07 08:41:39;;;;;;;20.25;12.43;;;;;;;3.84;43.55;99821.44;5141372;28;20046;-71
2022/03/07 08:44:29;;;;;;;19.38;11.93;;;;;;;4.58;40.68;99826.19;5141029;28;20074;-71
2022/03/07 08:47:20;;;;;;;17.67;10.60;;;;;;;4.21;40.13;99823.81;5141429;28;20073;-71
2022/03/07 08:50:11;;;;;;;20.63;11.57;;;;;;;5.08;40.39;99827.72;5140693;28;20113;-71
2022/03/07 08:53:01;;;;;;;19.95;11.88;;;;;;;4.30;40.97;99826.84;5140615;28;20042;-71
2022/03/07 08:55:52;;;;;;;22.85;12.25;;;;;;;4.45;40.39;99840.00;5125792;28;20057;-71
2022/03/07 08:59:02;;;;;;;18.50;11.68;;;;;;;5.65;38.57;99841.00;5140021;28;20061;-71
2022/03/07 09:01:52;;;;;;;22.05;12.18;;;;;;;5.76;38.74;99835.09;5140686;28;20074;-71
2022/03/07 09:04:43;;;;;;;16.85;11.70;;;;;;;4.63;40.08;99847.78;5141069;28;20807;-70
2022/03/07 09:07:34;;;;;;;19.30;11.48;;;;;;;3.95;40.89;99840.09;5140359;28;20062;-71
2022/03/07 09:10:24;;;;;;;18.63;11.38;;;;;;;5.67;38.29;99838.31;5125747;28;20473;-71
2022/03/07 09:13:14;;;;;;;20.13;11.75;;;;;;;4.44;39.94;99843.56;5140509;28;20416;-71
2022/03/07 09:16:04;;;;;;;25.70;12.20;;;;;;;6.40;36.54;99833.81;5139162;28;20050;-71
2022/03/07 09:18:54;;;;;;;21.23;11.23;;;;;;;5.60;39.04;99841.28;5141018;28;20055;-71
2022/03/07 09:21:44;;;;;;;17.88;11.40;;;;;;;6.69;36.97;99844.25;5141009;28;20090;-71
2022/03/07 09:24:35;;;;;;;20.02;11.60;;;;;;;6.42;38.25;99845.06;5140233;28;20575;-71
2022/03/07 09:27:25;;;;;;;20.92;11.63;;;;;;;6.29;37.11;99845.03;5139041;28;20153;-71
2022/03/07 09:30:15;;;;;;;16.35;10.43;;;;;;;5.28;39.93;99837.94;5139680;28;20043;-71
2022/03/07 09:33:05;;;;;;;16.20;11.23;;;;;;;7.19;37.17;99843.63;5137902;28;20062;-71
2022/03/07 09:35:55;;;;;;;16.08;11.13;;;;;;;4.35;39.04;99844.06;5141565;28;20058;-71
2022/03/07 09:38:45;;;;;;;20.90;11.93;;;;;;;5.01;39.43;99847.41;5142098;28;20428;-71
2022/03/07 09:41:36;;;;;;;19.33;12.05;;;;;;;6.81;36.33;99835.56;5147209;28;20280;-71
2022/03/07 09:44:27;;;;;;;19.55;11.63;;;;;;;6.04;36.82;99856.22;5143351;28;20521;-71
2022/03/07 09:47:20;;;;;;;17.63;10.82;;;;;;;5.53;38.29;99850.50;5143679;28;20051;-71
2022/03/07 09:50:11;;;;;;;16.27;11.05;;;;;;;4.29;39.31;99843.53;5143173;28;20054;-71
2022/03/07 09:53:01;;;;;;;20.00;11.32;;;;;;;3.59;40.13;99842.88;5143460;28;20417;-70
2022/03/07 09:55:52;;;;;;;17.48;11.18;;;;;;;4.98;40.20;99842.34;5143859;28;20061;-71
2022/03/07 09:58:43;;;;;;;18.33;10.85;;;;;;;5.68;37.57;99827.66;5143644;28;20082;-71
2022/03/07 10:01:33;;;;;;;19.73;11.40;;;;;;;6.40;36.65;99833.81;5143728;28;20058;-70
2022/03/07 10:04:23;;;;;;;15.75;10.68;;;;;;;6.43;35.83;99838.88;5143202;28;20585;-71
2022/03/07 10:07:14;;;;;;;16.65;10.85;;;;;;;6.32;36.05;99854.50;5155900;28;20390;-71
2022/03/07 10:10:07;;;;;;;18.10;11.50;;;;;;;7.77;34.81;99846.75;5143139;28;20046;-71
2022/03/07 10:13:04;;;;;;;17.58;10.60;;;;;;;6.84;34.00;99830.09;5133367;28;20110;-70
2022/03/07 10:16:05;;;;;;;18.10;10.73;;;;;;;6.03;36.16;99846.63;5129816;28;20528;-70
2022/03/07 10:18:57;;;;;;;16.42;11.02;;;;;;;4.96;37.22;99850.28;5141461;28;20413;-70
2022/03/07 10:21:50;;;;;;;20.73;10.90;;;;;;;5.59;36.32;99844.84;5141478;28;20086;-70
2022/03/07 10:24:40;;;;;;;15.45;11.18;;;;;;;4.32;37.66;99844.22;5143585;28;20062;-70
2022/03/07 10:27:35;;;;;;;17.40;10.40;;;;;;;4.59;37.45;99856.78;5155677;28;20486;-71
2022/03/07 10:30:31;;;;;;;20.05;10.77;;;;;;;3.76;38.74;99862.03;5142181;28;20054;-70
2022/03/07 10:33:25;;;;;;;17.92;11.15;;;;;;;6.02;35.84;99849.34;5143160;28;20054;-70
2022/03/07 10:36:16;;;;;;;;;;;;;;;5.83;37.11;99847.81;5144768;28;20051;-71
2022/03/07 10:39:12;;;;;;;17.73;10.20;;;;;;;5.81;35.97;99849.69;5156223;28;20423;-70
2022/03/07 10:42:03;;;;;;;18.90;11.48;;;;;;;5.55;37.95;99847.75;5141420;28;20082;-71
2022/03/07 10:45:02;;;;;;;19.38;10.82;;;;;;;5.30;36.59;99835.22;5142448;28;20051;-70
2022/03/07 10:48:00;;;;;;;16.73;10.60;;;;;;;5.88;36.92;99842.25;5139592;28;20053;-70
2022/03/07 10:50:57;;;;;;;16.30;10.82;;;;;;;6.16;34.84;99844.09;5142660;28;20424;-70
2022/03/07 10:53:48;;;;;;;17.50;11.35;;;;;;;6.46;35.34;99838.69;5141644;28;20528;-70
2022/03/07 10:56:53;;;;;;;24.33;10.90;;;;;;;5.73;36.31;99835.28;5142292;28;20306;-71
2022/03/07 10:59:43;;;;;;;16.65;11.07;;;;;;;6.33;36.48;99829.88;5141892;28;20201;-70
2022/03/07 11:02:39;;;;;;;17.30;11.15;;;;;;;6.77;34.59;99845.47;5154570;28;20046;-70
2022/03/07 11:05:30;;;;;;;18.42;11.00;;;;;;;7.00;34.74;99830.78;5141482;28;20051;-71
2022/03/07 11:08:21;;;;;;;15.30;10.80;;;;;;;7.28;34.38;99831.59;5142245;28;20058;-70
2022/03/07 11:11:13;;;;;;;19.90;11.18;;;;;;;6.85;33.69;99834.41;5196525;23;20049;-66
2022/03/07 11:14:04;;;;;;;18.33;10.82;;;;;;;6.08;35.56;99834.00;5200317;28;20522;-66
2022/03/07 11:16:58;;;;;;;17.67;11.02;;;;;;;5.75;36.22;99836.03;5202210;28;20064;-66
2022/03/07 11:19:54;;;;;;;17.15;11.05;;;;;;;6.31;36.04;99815.94;5201690;28;20049;-66
2022/03/07 11:22:44;;;;;;;22.38;11.98;;;;;;;6.32;37.68;99822.88;5198712;28;21614;-68
2022/03/07 11:25:36;;;;;;;19.02;10.48;;;;;;;6.77;34.88;99820.91;5187693;28;20136;-66
2022/03/07 11:28:28;;;;;;;16.65;10.88;;;;;;;6.95;33.78;99811.78;5191330;28;20441;-66
2022/03/07 11:31:22;;;;;;;18.50;11.00;;;;;;;5.97;34.96;99790.88;5183563;28;20045;-66
2022/03/07 11:34:13;;;;;;;17.75;10.82;;;;;;;5.85;35.92;99808.22;5190788;28;20053;-67
2022/03/07 11:37:21;;;;;;;17.75;10.27;;;;;;;5.96;35.88;99813.72;5183177;28;20065;-68
2022/03/07 11:40:21;;;;;;;16.48;11.32;;;;;;;6.28;33.93;99809.06;5208775;28;20519;-68
2022/03/07 11:43:12;;;;;;;17.52;11.70;;;;;;;6.23;35.77;99807.69;5191787;28;20124;-67
2022/03/07 11:46:03;;;;;;;21.50;11.52;;;;;;;5.47;34.52;99808.78;5194811;28;20500;-71
2022/03/07 11:48:54;;;;;;;18.67;11.77;;;;;;;4.53;37.45;99776.53;5190329;28;20092;-70
2022/03/07 11:51:44;;;;;;;19.20;11.57;;;;;;;5.28;36.71;99811.63;5196876;28;20511;-70
2022/03/07 11:54:48;;;;;;;17.80;11.15;;;;;;;5.23;35.32;99803.19;5181837;28;20063;-66
2022/03/07 11:57:44;;;;;;;19.92;11.63;;;;;;;6.00;35.30;99799.44;5197186;28;20076;-69
2022/03/07 12:00:36;;;;;;;16.58;11.15;;;;;;;5.22;34.10;99798.00;5196251;28;20057;-67
2022/03/07 12:03:32;;;;;;;19.33;11.75;;;;;;;6.52;35.39;99798.78;5173763;28;20184;-69
2022/03/07 12:06:26;;;;;;;17.00;11.60;;;;;;;6.64;33.38;99769.94;5182958;28;20079;-68
2022/03/07 12:09:32;;;;;;;17.15;11.93;;;;;;;5.74;37.36;99789.63;5186931;28;20503;-66
2022/03/07 12:12:23;;;;;;;18.65;11.23;;;;;;;6.21;34.63;99756.88;5196108;28;20135;-66
2022/03/07 12:15:17;;;;;;;18.05;11.57;;;;;;;3.90;36.45;99764.25;5191629;28;20042;-68
2022/03/07 12:18:10;;;;;;;17.55;11.57;;;;;;;4.84;36.32;99782.69;5182073;28;20188;-69
2022/03/07 12:21:03;;;;;;;18.25;11.15;;;;;;;5.39;35.57;99769.75;5171290;28;20142;-67
2022/03/07 12:23:57;;;;;;;18.65;12.13;;;;;;;5.83;35.50;99774.13;5180804;28;20068;-66
2022/03/07 12:26:56;;;;;;;18.65;11.85;;;;;;;5.75;34.55;99788.69;5181388;28;20655;-66
2022/03/07 12:29:46;;;;;;;18.95;12.43;;;;;;;4.43;36.54;99777.97;5180276;28;20444;-67
2022/03/07 12:32:38;;;;;;;19.90;12.50;;;;;;;6.00;34.76;99767.00;5183832;28;20416;-67
2022/03/07 12:35:29;;;;;;;21.45;12.30;;;;;;;6.95;33.61;99750.31;5181279;28;20056;-68
2022/03/07 12:38:23;;;;;;;18.38;12.32;;;;;;;6.79;33.67;99753.13;5182674;28;20072;-67
2022/03/07 12:41:15;;;;;;;21.13;12.50;;;;;;;6.83;34.03;99749.34;5181975;28;20132;-67
2022/03/07 12:44:06;;;;;;;18.55;12.18;;;;;;;6.19;34.28;99753.50;5181977;28;20485;-67
2022/03/07 12:46:56;;;;;;;18.80;11.35;;;;;;;6.32;33.21;99741.25;5172056;28;20120;-67
2022/03/07 12:49:48;;;;;;;20.00;12.30;;;;;;;5.79;34.70;99741.00;5181065;28;20191;-68
2022/03/07 12:52:40;;;;;;;20.35;11.55;;;;;;;6.22;33.82;99733.06;5182393;28;20061;-68
2022/03/07 12:55:30;;;;;;;27.92;12.75;;;;;;;6.65;32.64;99734.72;5180591;28;20123;-68
2022/03/07 12:58:21;;;;;;;17.05;11.05;;;;;;;6.51;34.06;99722.47;5178124;28;20056;-69
2022/03/07 13:01:12;;;;;;;18.70;12.32;;;;;;;6.57;33.57;99717.63;5178479;28;20183;-68
2022/03/07 13:04:03;;;;;;;18.30;12.40;;;;;;;5.32;33.90;99721.09;5179315;28;20057;-68
2022/03/07 13:06:55;;;;;;;22.08;12.63;;;;;;;4.71;36.12;99720.34;5179346;28;20061;-68
2022/03/07 13:09:46;;;;;;;18.83;12.27;;;;;;;5.13;36.54;99723.13;5186710;28;20045;-68
2022/03/07 13:12:37;;;;;;;18.70;12.55;;;;;;;6.26;33.51;99716.16;5184883;28;20092;-68
2022/03/07 13:15:30;;;;;;;18.55;11.82;;;;;;;6.53;32.79;99710.88;5185623;28;20045;-66